Flight Number: EUR1345 Duration: 1:30
Departure: Belfast City (EGAC) at 18:30 Distance: 438 Nm
Arrival: Bruxelles National (EBBR) at 20:00 Equipment: A321

Weather Information
Belfast / Harbour, United Kingdom (EGAC) 54-36N 005-53W 0M Feb 24, 2018 - 12:50 AM EST / 2018.02.24 0550 UTC
Wind: from the SE (130 degrees) at 12 MPH (10 KT):0
Visibility: greater than 7 mile(s):0
Sky conditions: overcast Temperature: 37 F (3 C) Dew Point: 30 F (-1 C) Relative Humidity: 74% Pressure (altimeter): 30.09 in. Hg (1019 hPa)
ob: EGAC 240550Z AUTO 13010KT 9999 OVC029/// 03/M01 Q1019 cycle: 6
Sunrise: 07:27 Sunset: 17:45 (UTC)

Bruxelles National, Belgium (EBBR) 50-54N 004-32E 58M Feb 24, 2018 - 12:50 AM EST / 2018.02.24 0550 UTC
Wind: from the ENE (070 degrees) at 8 MPH (7 KT):0
Visibility: greater than 7 mile(s):0 Temperature: 24 F (-4 C)
Windchill: 15 F (-9 C):1 Dew Point: 14 F (-10 C) Relative Humidity: 62% Pressure (altimeter): 30.15 in. Hg (1021 hPa)
ob: EBBR 240550Z 07007KT CAVOK M04/M10 Q1021 NOSIG cycle: 6
Sunrise: 06:39 Sunset: 17:11 (UTC)

TAF:2018/02/24 06:27 TAF TAF EBBR 240500Z 2406/2512 07012KT CAVOK PROB40 TEMPO 2411/2416 07015G25KT

Previous Pireps for this route
Date Aircraft Flight time Fuel used Landing rate On time
2013-04-03A32101.4110277-104Yes
2013-04-03A3211.4891890No
2013-05-24A32101.4310001-45No
2014-03-05A32102.2216938-637Charter
2014-12-27A32101.1780730Yes
2015-03-30A32101.299448-308Yes
(pireps marked green are flown by you)

Route map